createdAt,value
2017-10-13T00:01:10.832Z,96178.36
2017-10-13T00:03:38.398Z,96170.39
2017-10-13T00:06:05.979Z,96173.14
2017-10-13T00:08:33.574Z,96176.06
2017-10-13T00:11:01.150Z,96170.75
2017-10-13T00:13:28.685Z,96176.75
2017-10-13T00:15:56.285Z,96172.21
2017-10-13T00:18:23.817Z,96173.06
2017-10-13T00:20:51.350Z,96172.55
2017-10-13T00:23:18.963Z,96174.85
2017-10-13T00:25:46.494Z,96171.86
2017-10-13T00:28:14.010Z,96174.60
2017-10-13T00:30:41.722Z,96172.98
2017-10-13T00:33:09.282Z,96171.95
2017-10-13T00:35:36.802Z,96174.69
2017-10-13T00:38:04.381Z,96178.34
2017-10-13T00:40:31.991Z,96176.27
2017-10-13T00:42:59.505Z,96176.27
2017-10-13T00:45:28.033Z,96171.09
2017-10-13T00:47:55.665Z,96170.33
2017-10-13T00:50:23.426Z,96175.16
2017-10-13T00:52:51.010Z,96177.49
2017-10-13T00:55:18.546Z,96184.06
2017-10-13T00:57:46.183Z,96191.78
2017-10-13T01:00:13.790Z,96183.28
2017-10-13T01:02:41.366Z,96187.35
2017-10-13T01:05:09.341Z,96191.09
2017-10-13T01:07:36.982Z,96189.14
2017-10-13T01:10:04.738Z,96192.84
2017-10-13T01:12:32.293Z,96183.78
2017-10-13T01:14:59.931Z,96185.56
2017-10-13T01:17:27.475Z,96180.02
2017-10-13T01:19:55.074Z,96180.20
2017-10-13T01:22:22.646Z,96178.41
2017-10-13T01:24:50.274Z,96176.19
2017-10-13T01:27:17.840Z,96179.69
2017-10-13T01:29:45.852Z,96177.16
2017-10-13T01:32:13.474Z,96181.06
2017-10-13T01:34:41.114Z,96181.85
2017-10-13T01:37:08.967Z,96182.64
2017-10-13T01:39:36.730Z,96186.69
2017-10-13T01:42:04.370Z,96194.88
2017-10-13T01:44:31.964Z,96190.28
2017-10-13T01:46:59.610Z,96197.11
2017-10-13T01:49:27.171Z,96202.84
2017-10-13T01:51:54.787Z,96197.98
2017-10-13T01:54:22.400Z,96203.86
2017-10-13T01:56:50.236Z,96202.03
2017-10-13T01:59:18.044Z,96194.59
2017-10-13T02:01:45.667Z,96190.42
2017-10-13T02:04:13.483Z,96195.69
2017-10-13T02:06:41.117Z,96189.48
2017-10-13T02:09:08.747Z,96194.95
2017-10-13T02:11:36.365Z,96187.88
2017-10-13T02:14:03.955Z,96191.99
2017-10-13T02:16:31.524Z,96185.70
2017-10-13T02:18:59.070Z,96192.33
2017-10-13T02:21:26.695Z,96190.02
2017-10-13T02:23:54.314Z,96199.41
2017-10-13T02:26:21.921Z,96197.31
2017-10-13T02:28:49.479Z,96202.59
2017-10-13T02:31:17.043Z,96192.14
2017-10-13T02:33:44.599Z,96192.80
2017-10-13T02:36:12.153Z,96185.62
2017-10-13T02:38:39.774Z,96207.13
2017-10-13T02:41:07.500Z,96197.92
2017-10-13T02:43:35.080Z,96207.56
2017-10-13T02:46:02.697Z,96205.69
2017-10-13T02:48:30.277Z,96205.13
2017-10-13T02:50:57.870Z,96201.45
2017-10-13T02:53:25.478Z,96212.48
2017-10-13T02:55:53.127Z,96211.74
2017-10-13T02:58:20.664Z,96214.05
2017-10-13T03:00:48.325Z,96221.33
2017-10-13T03:03:15.927Z,96217.98
2017-10-13T03:05:43.482Z,96222.05
2017-10-13T03:08:11.107Z,96224.21
2017-10-13T03:10:38.642Z,96234.20
2017-10-13T03:13:06.157Z,96230.97
2017-10-13T03:15:33.731Z,96233.59
2017-10-13T03:18:01.269Z,96239.95
2017-10-13T03:20:29.082Z,96240.31
2017-10-13T03:22:56.647Z,96234.37
2017-10-13T03:25:24.181Z,96233.22
2017-10-13T03:27:51.772Z,96233.08
2017-10-13T03:30:19.431Z,96231.87
2017-10-13T03:32:47.011Z,96223.44
2017-10-13T03:35:14.581Z,96221.20
2017-10-13T03:37:42.228Z,96231.19
2017-10-13T03:40:09.771Z,96241.43
2017-10-13T03:42:37.332Z,96241.68
2017-10-13T03:45:05.046Z,96241.69
2017-10-13T03:47:32.706Z,96235.58
2017-10-13T03:50:00.256Z,96235.16
2017-10-13T03:52:27.840Z,96239.48
2017-10-13T03:54:55.450Z,96236.95
2017-10-13T03:57:23.725Z,96236.45
2017-10-13T03:59:51.386Z,96235.91
2017-10-13T04:02:18.999Z,96238.62
2017-10-13T04:04:46.594Z,96245.94
2017-10-13T04:07:14.155Z,96246.97
2017-10-13T04:09:41.756Z,96243.02
2017-10-13T04:12:09.514Z,96254.92
2017-10-13T04:14:37.101Z,96254.78
2017-10-13T04:17:04.759Z,96254.42
2017-10-13T04:19:33.496Z,96250.89
2017-10-13T04:22:01.287Z,96253.09
2017-10-13T04:24:28.903Z,96251.81
2017-10-13T04:26:56.485Z,96250.27
2017-10-13T04:29:24.306Z,96251.73
2017-10-13T04:31:51.886Z,96254.17
2017-10-13T04:34:19.663Z,96256.49
2017-10-13T04:36:47.773Z,96253.63
2017-10-13T04:39:15.346Z,96264.67
2017-10-13T04:41:42.878Z,96254.23
2017-10-13T04:44:10.709Z,96254.31
2017-10-13T04:46:38.260Z,96252.94
2017-10-13T04:49:05.851Z,96252.95
2017-10-13T04:51:33.654Z,96254.73
2017-10-13T04:54:01.245Z,96260.65
2017-10-13T04:56:28.789Z,96247.83
2017-10-13T04:58:56.336Z,96254.38
2017-10-13T05:01:23.895Z,96256.69
2017-10-13T05:03:51.443Z,96262.08
2017-10-13T05:06:19.013Z,96262.70
2017-10-13T05:08:46.598Z,96265.91
2017-10-13T05:11:14.147Z,96275.30
2017-10-13T05:13:42.020Z,96278.52
2017-10-13T05:16:09.585Z,96284.91
2017-10-13T05:18:37.132Z,96291.69
2017-10-13T05:21:04.691Z,96274.14
2017-10-13T05:23:32.302Z,96283.78
2017-10-13T05:26:00.050Z,96284.48
2017-10-13T05:28:27.567Z,96280.66
2017-10-13T05:30:55.164Z,96281.16
2017-10-13T05:33:22.807Z,96283.25
2017-10-13T05:35:50.349Z,96288.08
2017-10-13T05:38:17.915Z,96296.33
2017-10-13T05:40:45.487Z,96291.50
2017-10-13T05:43:13.091Z,96301.92
2017-10-13T05:45:40.710Z,96293.97
2017-10-13T05:48:08.580Z,96304.08
2017-10-13T05:50:36.119Z,96305.59
2017-10-13T05:53:03.698Z,96303.84
2017-10-13T05:55:31.223Z,96312.43
2017-10-13T05:57:58.843Z,96309.46
2017-10-13T06:00:26.440Z,96310.48
2017-10-13T06:02:53.980Z,96316.52
2017-10-13T06:05:21.521Z,96308.40
2017-10-13T06:07:49.121Z,96317.95
2017-10-13T06:10:16.693Z,96322.32
2017-10-13T06:12:44.264Z,96319.63
2017-10-13T06:15:11.910Z,96317.98
2017-10-13T06:17:39.578Z,96315.64
2017-10-13T06:20:07.111Z,96317.02
2017-10-13T06:22:34.699Z,96322.34
2017-10-13T06:25:02.266Z,96320.58
2017-10-13T06:27:29.825Z,96321.14
2017-10-13T06:29:57.423Z,96318.52
2017-10-13T06:32:25.031Z,96317.30
2017-10-13T06:34:52.557Z,96321.36
2017-10-13T06:37:20.188Z,96313.13
2017-10-13T06:39:47.994Z,96317.30
2017-10-13T06:42:15.596Z,96316.89
2017-10-13T06:44:43.138Z,96323.04
2017-10-13T06:47:10.797Z,96324.97
2017-10-13T06:49:38.393Z,96328.02
2017-10-13T06:52:06.000Z,96319.97
2017-10-13T06:54:33.650Z,96324.98
2017-10-13T06:57:01.295Z,96325.13
2017-10-13T06:59:28.876Z,96332.91
2017-10-13T07:01:56.502Z,96334.06
2017-10-13T07:04:24.087Z,96331.30
2017-10-13T07:06:51.695Z,96334.87
2017-10-13T07:09:19.274Z,96338.80
2017-10-13T07:11:47.209Z,96336.03
2017-10-13T07:14:14.785Z,96327.55
2017-10-13T07:16:42.409Z,96334.87
2017-10-13T07:19:10.167Z,96330.70
2017-10-13T07:21:37.953Z,96329.92
2017-10-13T07:24:06.492Z,96326.95
2017-10-13T07:26:34.114Z,96328.52
2017-10-13T07:29:01.893Z,96323.23
2017-10-13T07:31:29.631Z,96326.42
2017-10-13T07:33:57.299Z,96313.45
2017-10-13T07:36:25.128Z,96320.54
2017-10-13T07:38:52.717Z,96319.18
2017-10-13T07:41:20.325Z,96321.10
2017-10-13T07:43:47.892Z,96324.70
2017-10-13T07:46:15.507Z,96323.23
2017-10-13T07:48:43.089Z,96315.73
2017-10-13T07:51:10.735Z,96318.98
2017-10-13T07:53:38.379Z,96308.08
2017-10-13T07:56:05.991Z,96307.83
2017-10-13T07:58:33.613Z,96309.02
2017-10-13T08:01:01.211Z,96301.99
2017-10-13T08:03:28.800Z,96281.27
2017-10-13T08:05:56.615Z,96299.16
2017-10-13T08:08:24.213Z,96295.27
2017-10-13T08:10:52.015Z,96286.16
2017-10-13T08:13:19.551Z,96282.13
2017-10-13T08:15:47.161Z,96287.25
2017-10-13T08:18:14.941Z,96286.23
2017-10-13T08:20:42.508Z,96288.04
2017-10-13T08:23:10.259Z,96285.25
2017-10-13T08:25:37.911Z,96273.50
2017-10-13T08:28:05.499Z,96272.95
2017-10-13T08:30:33.111Z,96271.46
2017-10-13T08:33:00.859Z,96271.73
2017-10-13T08:35:28.449Z,96266.02
2017-10-13T08:37:56.895Z,96261.83
2017-10-13T08:40:24.734Z,96259.15
2017-10-13T08:42:52.504Z,96259.09
2017-10-13T08:45:20.085Z,96258.09
2017-10-13T08:47:47.831Z,96255.95
2017-10-13T08:50:15.411Z,96247.56
2017-10-13T08:52:43.062Z,96246.38
2017-10-13T08:55:10.665Z,96253.07
2017-10-13T08:57:38.294Z,96250.09
2017-10-13T09:00:06.417Z,96249.69
2017-10-13T09:02:34.000Z,96242.70
2017-10-13T09:05:01.570Z,96238.79
2017-10-13T09:07:29.199Z,96242.52
2017-10-13T09:09:56.778Z,96232.41
2017-10-13T09:12:24.550Z,96245.55
2017-10-13T09:14:52.146Z,96235.36
2017-10-13T09:17:19.852Z,96240.20
2017-10-13T09:19:47.453Z,96232.05
2017-10-13T09:22:15.081Z,96231.95
2017-10-13T09:24:42.653Z,96234.09
2017-10-13T09:27:10.205Z,96230.43
2017-10-13T09:29:37.812Z,96225.41
2017-10-13T09:32:05.490Z,96231.01
2017-10-13T09:34:33.043Z,96216.48
2017-10-13T09:37:00.617Z,96225.50
2017-10-13T09:39:28.382Z,96220.17
2017-10-13T09:41:55.997Z,96210.38
2017-10-13T09:44:23.584Z,96216.68
2017-10-13T09:46:51.144Z,96211.93
2017-10-13T09:49:18.746Z,96208.80
2017-10-13T09:51:46.284Z,96204.41
2017-10-13T09:54:13.942Z,96203.38
2017-10-13T09:56:41.477Z,96204.44
2017-10-13T09:59:09.013Z,96193.19
2017-10-13T10:01:36.600Z,96194.97
2017-10-13T10:04:04.254Z,96196.94
2017-10-13T10:06:31.839Z,96196.30
2017-10-13T10:08:59.415Z,96193.33
2017-10-13T10:11:26.971Z,96184.39
2017-10-13T10:13:54.499Z,96186.99
2017-10-13T10:16:22.082Z,96182.77
2017-10-13T10:18:49.638Z,96178.48
2017-10-13T10:21:17.201Z,96178.95
2017-10-13T10:23:44.786Z,96175.52
2017-10-13T10:26:12.404Z,96174.79
2017-10-13T10:28:40.009Z,96162.56
2017-10-13T10:31:07.634Z,96158.13
2017-10-13T10:33:35.177Z,96156.48
2017-10-13T10:36:02.792Z,96152.39
2017-10-13T10:38:30.499Z,96144.09
2017-10-13T10:40:58.010Z,96147.31
2017-10-13T10:43:25.533Z,96153.05
2017-10-13T10:45:53.138Z,96145.42
2017-10-13T10:48:20.677Z,96135.63
2017-10-13T10:50:48.245Z,96137.49
2017-10-13T10:53:15.850Z,96134.03
2017-10-13T10:55:43.443Z,96129.92
2017-10-13T10:58:11.018Z,96130.11
2017-10-13T11:00:38.639Z,96128.80
2017-10-13T11:03:06.184Z,96123.66
2017-10-13T11:05:33.711Z,96126.98
2017-10-13T11:08:01.518Z,96116.00
2017-10-13T11:10:30.178Z,96122.53
2017-10-13T11:12:57.815Z,96113.09
2017-10-13T11:15:25.444Z,96112.08
2017-10-13T11:17:53.771Z,96114.47
2017-10-13T11:20:21.299Z,96112.53
2017-10-13T11:22:48.879Z,96105.68
2017-10-13T11:25:16.750Z,96111.44
2017-10-13T11:27:44.551Z,96109.03
2017-10-13T11:30:13.213Z,96108.71
2017-10-13T11:32:41.667Z,96110.19
2017-10-13T11:35:09.281Z,96112.45
2017-10-13T11:37:36.998Z,96105.26
2017-10-13T11:40:04.559Z,96100.41
2017-10-13T11:42:32.105Z,96102.05
2017-10-13T11:44:59.709Z,96108.02
2017-10-13T11:47:27.248Z,96094.27
2017-10-13T11:49:58.608Z,96095.89
2017-10-13T11:52:26.213Z,96098.80
2017-10-13T11:54:53.790Z,96101.45
2017-10-13T11:57:21.322Z,96100.86
2017-10-13T11:59:48.915Z,96091.23
2017-10-13T12:02:16.485Z,96094.97
2017-10-13T12:04:44.297Z,96103.52
2017-10-13T12:07:11.845Z,96099.78
2017-10-13T12:09:39.548Z,96090.95
2017-10-13T12:12:07.344Z,96092.13
2017-10-13T12:14:34.857Z,96093.88
2017-10-13T12:17:02.512Z,96083.63
2017-10-13T12:19:30.037Z,96080.30
2017-10-13T12:21:57.844Z,96083.63
2017-10-13T12:24:25.406Z,96082.84
2017-10-13T12:26:52.916Z,96087.11
2017-10-13T12:29:21.264Z,96082.52
2017-10-13T12:31:48.849Z,96077.77
2017-10-13T12:34:16.402Z,96081.84
2017-10-13T12:36:44.864Z,96071.41
2017-10-13T12:39:12.764Z,96077.12
2017-10-13T12:41:40.380Z,96067.28
2017-10-13T12:44:07.910Z,96067.92
2017-10-13T12:46:35.499Z,96065.79
2017-10-13T12:49:03.089Z,96067.95
2017-10-13T12:51:30.626Z,96056.87
2017-10-13T12:53:58.319Z,96066.80
2017-10-13T12:56:25.952Z,96053.64
2017-10-13T12:58:53.461Z,96059.53
2017-10-13T13:01:21.135Z,96050.73
2017-10-13T13:03:48.664Z,96050.40
2017-10-13T13:06:16.520Z,96045.87
2017-10-13T13:08:44.117Z,96053.12
2017-10-13T13:11:11.808Z,96045.64
2017-10-13T13:13:39.437Z,96051.77
2017-10-13T13:16:07.666Z,96043.87
2017-10-13T13:18:35.222Z,96049.05
2017-10-13T13:21:02.795Z,96048.89
2017-10-13T13:23:30.480Z,96047.81
2017-10-13T13:25:58.153Z,96042.12
2017-10-13T13:28:25.699Z,96044.48
2017-10-13T13:30:53.358Z,96042.34
2017-10-13T13:33:20.953Z,96034.88
2017-10-13T13:35:48.518Z,96032.91
2017-10-13T13:38:16.166Z,96027.31
2017-10-13T13:40:43.779Z,96030.86
2017-10-13T13:43:11.295Z,96030.84
2017-10-13T13:45:38.888Z,96031.39
2017-10-13T13:48:06.688Z,96026.50
2017-10-13T13:50:34.245Z,96022.91
2017-10-13T13:53:02.575Z,96020.03
2017-10-13T13:55:30.179Z,96029.84
2017-10-13T13:57:57.767Z,96021.39
2017-10-13T14:00:25.350Z,96021.02
2017-10-13T14:02:52.921Z,96017.05
2017-10-13T14:05:20.750Z,96021.48
2017-10-13T14:07:48.347Z,96021.86
2017-10-13T14:10:15.927Z,96020.39
2017-10-13T14:12:43.819Z,96010.14
2017-10-13T14:15:11.398Z,96017.77
2017-10-13T14:17:38.963Z,96016.68
2017-10-13T14:20:06.943Z,96031.11
2017-10-13T14:22:34.525Z,96027.12
2017-10-13T14:25:02.074Z,96016.23
2017-10-13T14:27:29.664Z,96021.73
2017-10-13T14:29:57.375Z,96025.93
2017-10-13T14:32:24.967Z,96014.69
2017-10-13T14:34:52.566Z,96023.89
2017-10-13T14:37:20.122Z,96021.14
2017-10-13T14:39:47.745Z,96029.52
2017-10-13T14:42:15.361Z,96023.48
2017-10-13T14:44:42.939Z,96024.38
2017-10-13T14:47:10.599Z,96019.02
2017-10-13T14:49:38.338Z,96017.58
2017-10-13T14:52:05.894Z,96019.23
2017-10-13T14:54:33.470Z,96020.33
2017-10-13T14:57:00.988Z,96023.34
2017-10-13T14:59:28.609Z,96015.95
2017-10-13T15:01:56.298Z,96022.41
2017-10-13T15:04:24.070Z,96026.82
2017-10-13T15:06:51.647Z,96025.58
2017-10-13T15:09:19.250Z,96021.36
2017-10-13T15:11:46.817Z,96021.80
2017-10-13T15:14:14.604Z,96026.83
2017-10-13T15:16:42.309Z,96026.09
2017-10-13T15:19:10.107Z,96027.94
2017-10-13T15:21:37.806Z,96030.92
2017-10-13T15:24:05.407Z,96033.02
2017-10-13T15:26:32.998Z,96024.20
2017-10-13T15:29:06.291Z,96036.13
2017-10-13T15:31:39.582Z,96044.31
2017-10-13T15:34:13.116Z,96039.95
2017-10-13T15:36:40.881Z,96047.20
2017-10-13T15:42:31.626Z,96039.34
2017-10-13T15:44:59.296Z,96047.29
2017-10-13T15:47:32.685Z,96048.77
2017-10-13T15:50:05.830Z,96051.51
2017-10-13T15:52:33.539Z,96039.63
2017-10-13T15:55:02.546Z,96050.14
2017-10-13T15:57:30.135Z,96046.50
2017-10-13T15:59:58.048Z,96050.56
2017-10-13T16:02:25.769Z,96057.91
2017-10-13T16:04:53.697Z,96063.94
2017-10-13T16:07:21.285Z,96064.58
2017-10-13T16:09:49.182Z,96068.75
2017-10-13T16:12:17.141Z,96066.64
2017-10-13T16:14:44.718Z,96064.74
2017-10-13T16:17:12.656Z,96071.69
2017-10-13T16:19:40.517Z,96070.36
2017-10-13T16:22:08.502Z,96078.40
2017-10-13T16:24:36.207Z,96078.40
2017-10-13T16:27:04.509Z,96078.02
2017-10-13T16:29:32.434Z,96082.25
2017-10-13T16:32:00.455Z,96080.53
2017-10-13T16:34:28.699Z,96083.70
2017-10-13T16:36:56.529Z,96086.94
2017-10-13T16:39:24.863Z,96087.41
2017-10-13T16:41:52.751Z,96090.45
2017-10-13T16:44:20.801Z,96091.84
2017-10-13T16:46:48.939Z,96086.86
2017-10-13T16:49:17.516Z,96090.17
2017-10-13T16:51:45.347Z,96083.59
2017-10-13T16:54:13.266Z,96087.00
2017-10-13T16:56:41.092Z,96080.66
2017-10-13T16:59:09.091Z,96084.95
2017-10-13T17:01:37.161Z,96087.69
2017-10-13T17:04:05.206Z,96085.04
2017-10-13T17:06:33.081Z,96092.92
2017-10-13T17:09:01.088Z,96094.77
2017-10-13T17:11:28.978Z,96106.86
2017-10-13T17:13:56.702Z,96102.08
2017-10-13T17:16:24.601Z,96105.23
2017-10-13T17:18:52.538Z,96095.31
2017-10-13T17:21:20.415Z,96105.23
2017-10-13T17:23:48.451Z,96097.77
2017-10-13T17:26:16.294Z,96103.69
2017-10-13T17:28:44.114Z,96106.19
2017-10-13T17:31:12.265Z,96111.17
2017-10-13T17:33:40.325Z,96097.33
2017-10-13T17:36:08.473Z,96104.91
2017-10-13T17:38:36.558Z,96110.55
2017-10-13T17:41:04.893Z,96102.69
2017-10-13T17:43:33.208Z,96110.20
2017-10-13T17:46:02.452Z,96107.93
2017-10-13T17:48:31.010Z,96111.14
2017-10-13T17:50:59.992Z,96112.07
2017-10-13T17:53:28.340Z,96101.17
2017-10-13T17:55:59.988Z,96103.71
2017-10-13T17:58:28.334Z,96108.80
2017-10-13T18:00:57.126Z,96118.22
2017-10-13T18:03:25.545Z,96121.31
2017-10-13T18:05:53.907Z,96120.22
2017-10-13T18:08:22.108Z,96126.23
2017-10-13T18:10:50.485Z,96116.22
2017-10-13T18:13:19.024Z,96118.66
2017-10-13T18:15:48.509Z,96124.27
2017-10-13T18:18:16.969Z,96119.78
2017-10-13T18:20:45.263Z,96110.04
2017-10-13T18:23:13.859Z,96118.66
2017-10-13T18:25:42.341Z,96110.64
2017-10-13T18:28:10.797Z,96116.91
2017-10-13T18:30:39.345Z,96114.13
2017-10-13T18:33:07.867Z,96113.06
2017-10-13T18:35:36.587Z,96125.83
2017-10-13T18:38:05.215Z,96122.61
2017-10-13T18:40:34.853Z,96120.05
2017-10-13T18:43:03.883Z,96112.41
2017-10-13T18:48:09.068Z,96136.16
2017-10-13T18:50:37.743Z,96137.36
2017-10-13T18:53:08.225Z,96134.04
2017-10-13T18:55:36.880Z,96135.63
2017-10-13T18:58:06.576Z,96136.73
2017-10-13T19:00:35.655Z,96140.46
2017-10-13T19:03:04.844Z,96146.56
2017-10-13T19:05:33.620Z,96153.66
2017-10-13T19:08:02.605Z,96160.41
2017-10-13T19:10:31.770Z,96159.72
2017-10-13T19:13:00.563Z,96172.22
2017-10-13T19:15:29.287Z,96170.53
2017-10-13T19:17:58.027Z,96164.25
2017-10-13T19:20:26.765Z,96159.84
2017-10-13T19:22:58.136Z,96159.13
2017-10-13T19:25:26.840Z,96156.84
2017-10-13T19:27:56.320Z,96159.02
2017-10-13T19:30:25.143Z,96160.61
2017-10-13T19:32:53.628Z,96170.02
2017-10-13T19:35:23.366Z,96164.05
2017-10-13T19:37:52.132Z,96164.53
2017-10-13T19:40:20.590Z,96164.83
2017-10-13T19:42:49.138Z,96162.86
2017-10-13T19:45:18.027Z,96165.23
2017-10-13T19:47:46.520Z,96169.21
2017-10-13T19:50:14.790Z,96178.33
2017-10-13T19:52:43.218Z,96175.25
2017-10-13T19:55:12.677Z,96171.50
2017-10-13T19:57:41.519Z,96187.28
2017-10-13T20:00:10.065Z,96190.54
2017-10-13T20:02:38.257Z,96186.36
2017-10-13T20:05:06.511Z,96197.30
2017-10-13T20:07:35.536Z,96198.67
2017-10-13T20:10:03.646Z,96197.44
2017-10-13T20:12:31.629Z,96190.83
2017-10-13T20:15:00.567Z,96199.65
2017-10-13T20:17:29.511Z,96201.41
2017-10-13T20:19:58.068Z,96200.13
2017-10-13T20:22:26.498Z,96192.16
2017-10-13T20:24:55.457Z,96204.20
2017-10-13T20:27:23.428Z,96207.05
2017-10-13T20:29:51.648Z,96205.27
2017-10-13T20:32:19.738Z,96203.97
2017-10-13T20:34:47.489Z,96207.81
2017-10-13T20:37:17.787Z,96204.21
2017-10-13T20:39:45.740Z,96207.13
2017-10-13T20:42:14.026Z,96204.32
2017-10-13T20:44:41.785Z,96213.59
2017-10-13T20:47:09.497Z,96213.90
2017-10-13T20:49:37.641Z,96208.27
2017-10-13T20:52:05.633Z,96210.93
2017-10-13T20:54:33.319Z,96200.34
2017-10-13T20:57:00.982Z,96212.11
2017-10-13T20:59:28.553Z,96205.13
2017-10-13T21:01:56.288Z,96200.17
2017-10-13T21:04:27.943Z,96207.98
2017-10-13T21:06:56.504Z,96206.44
2017-10-13T21:09:24.648Z,96204.44
2017-10-13T21:12:00.749Z,96209.74
2017-10-13T21:14:28.400Z,96206.89
2017-10-13T21:16:56.151Z,96208.42
2017-10-13T21:19:23.806Z,96199.41
2017-10-13T21:21:51.362Z,96194.66
2017-10-13T21:24:18.991Z,96189.49
2017-10-13T21:26:46.661Z,96182.66
2017-10-13T21:29:14.227Z,96187.59
2017-10-13T21:31:41.840Z,96184.66
2017-10-13T21:34:09.416Z,96184.14
2017-10-13T21:36:37.025Z,96181.30
2017-10-13T21:39:05.543Z,96177.50
2017-10-13T21:41:33.070Z,96178.96
2017-10-13T21:44:00.673Z,96188.00
2017-10-13T21:46:28.291Z,96184.36
2017-10-13T21:48:56.678Z,96184.02
2017-10-13T21:51:24.235Z,96185.60
2017-10-13T21:53:51.834Z,96192.81
2017-10-13T21:56:20.622Z,96186.97
2017-10-13T21:58:48.913Z,96193.43
2017-10-13T22:01:23.880Z,96180.56
2017-10-13T22:03:55.980Z,96187.66
2017-10-13T22:06:24.208Z,96196.05
2017-10-13T22:08:52.939Z,96202.83
2017-10-13T22:11:21.170Z,96208.22
2017-10-13T22:13:48.863Z,96195.64
2017-10-13T22:16:16.547Z,96204.65
2017-10-13T22:18:44.217Z,96202.55
2017-10-13T22:21:14.038Z,96200.41
2017-10-13T22:23:41.605Z,96201.64
2017-10-13T22:26:10.430Z,96204.77
2017-10-13T22:28:39.141Z,96211.73
2017-10-13T22:31:07.085Z,96202.77
2017-10-13T22:33:34.651Z,96205.12
2017-10-13T22:36:02.290Z,96204.68
2017-10-13T22:38:29.928Z,96204.11
2017-10-13T22:40:57.555Z,96204.87
2017-10-13T22:43:25.209Z,96208.34
2017-10-13T22:45:53.493Z,96203.38
2017-10-13T22:48:21.147Z,96212.38
2017-10-13T22:50:48.739Z,96203.53
2017-10-13T22:53:16.424Z,96210.80
2017-10-13T22:55:44.015Z,96194.25
2017-10-13T22:58:12.411Z,96214.28
2017-10-13T23:00:41.483Z,96210.16
2017-10-13T23:03:09.307Z,96215.88
2017-10-13T23:05:36.903Z,96216.91
2017-10-13T23:08:04.562Z,96211.48
2017-10-13T23:10:33.467Z,96214.47
2017-10-13T23:13:00.996Z,96213.83
2017-10-13T23:15:28.639Z,96216.73
2017-10-13T23:17:56.159Z,96216.31
2017-10-13T23:20:23.817Z,96224.70
2017-10-13T23:22:56.128Z,96222.55
2017-10-13T23:25:24.841Z,96227.10
2017-10-13T23:27:52.492Z,96223.80
2017-10-13T23:30:20.672Z,96212.98
2017-10-13T23:32:48.346Z,96218.92
2017-10-13T23:35:16.690Z,96219.91
2017-10-13T23:37:45.123Z,96216.94
2017-10-13T23:40:12.759Z,96216.88
2017-10-13T23:42:40.420Z,96215.86
2017-10-13T23:45:08.062Z,96219.52
2017-10-13T23:47:35.658Z,96210.14
2017-10-13T23:50:03.316Z,96217.33
2017-10-13T23:52:30.924Z,96217.55
2017-10-13T23:54:58.516Z,96220.00
2017-10-13T23:57:26.089Z,96225.24
2017-10-13T23:59:53.771Z,96217.59
